Time;durP1;ratioP1;P1;durP2;ratioP2;P2;SDS_P1;SDS_P2;PMS_P1;PMS_P2;Temp;Humidity;BMP_temperature;BMP_pressure;BME280_temperature;BME280_humidity;BME280_pressure;Samples;Min_cycle;Max_cycle;Signal;HPM_P1;HPM_P2
2022/05/05 00:02:02;;;;;;;9.38;5.03;;;;;;;6.05;100.00;102054.81;4859535;29;20069;-81
2022/05/05 00:04:31;;;;;;;11.15;4.68;;;;;;;6.06;100.00;102058.31;4832112;29;20076;-82
2022/05/05 00:07:01;;;;;;;11.40;4.95;;;;;;;6.05;100.00;102060.06;4816140;29;20050;-81
2022/05/05 00:09:33;;;;;;;11.45;5.28;;;;;;;6.06;100.00;102063.56;4833086;29;20049;-81
2022/05/05 00:14:51;;;;;;;7.65;4.30;;;;;;;6.06;100.00;102053.09;4856670;29;20272;-81
2022/05/05 00:17:19;;;;;;;12.23;5.32;;;;;;;6.07;100.00;102054.91;4834158;29;20033;-81
2022/05/05 00:19:48;;;;;;;12.10;5.72;;;;;;;6.09;100.00;102058.47;4843957;29;20069;-82
2022/05/05 00:22:17;;;;;;;10.90;4.70;;;;;;;6.09;100.00;102053.22;4848391;29;20037;-81
2022/05/05 00:24:49;;;;;;;15.18;5.47;;;;;;;6.09;100.00;102055.84;4842958;29;20062;-81
2022/05/05 00:27:18;;;;;;;6.88;4.43;;;;;;;6.09;100.00;102058.47;4830664;29;20038;-81
2022/05/05 00:29:48;;;;;;;;;;;;;;;6.07;100.00;102047.03;4840039;29;20289;-81
2022/05/05 00:32:18;;;;;;;9.52;4.95;;;;;;;6.06;100.00;102050.47;4860350;29;19925;-81
2022/05/05 00:34:47;;;;;;;12.13;5.07;;;;;;;6.04;100.00;102058.25;4859149;29;20049;-81
2022/05/05 00:37:16;;;;;;;11.05;5.20;;;;;;;6.05;100.00;102046.09;4830172;29;20054;-81
2022/05/05 00:39:45;;;;;;;6.65;3.88;;;;;;;6.04;100.00;102049.53;4842292;29;20058;-82
2022/05/05 00:42:14;;;;;;;11.88;5.30;;;;;;;6.05;100.00;102043.47;4845515;29;20058;-80
2022/05/05 00:44:43;;;;;;;8.15;4.85;;;;;;;6.07;100.00;102047.03;4845197;29;20056;-81
2022/05/05 00:47:16;;;;;;;7.38;5.00;;;;;;;6.08;100.00;102045.31;4812045;29;20065;-81
2022/05/05 00:49:52;;;;;;;9.10;5.75;;;;;;;6.08;100.00;102046.19;4827100;29;20531;-82
2022/05/05 00:52:21;;;;;;;10.88;5.32;;;;;;;6.06;100.00;102045.25;4843450;29;20041;-81
2022/05/05 00:54:50;;;;;;;12.10;5.28;;;;;;;6.08;100.00;102046.19;4825472;29;20050;-80
2022/05/05 00:57:20;;;;;;;10.27;4.75;;;;;;;6.11;100.00;102051.56;4859249;29;20037;-81
2022/05/05 00:59:50;;;;;;;9.30;4.75;;;;;;;6.14;100.00;102050.78;4859845;29;20065;-82
2022/05/05 01:02:19;;;;;;;;;;;;;;;6.16;100.00;102054.34;4837380;23;20051;-77
2022/05/05 01:04:47;;;;;;;8.75;5.18;;;;;;;6.16;100.00;102059.59;4788025;29;19936;-77
2022/05/05 01:07:18;;;;;;;8.80;5.15;;;;;;;6.16;100.00;102050.03;4771306;30;20058;-77
2022/05/05 01:09:48;;;;;;;10.35;5.13;;;;;;;6.17;100.00;102056.16;4777259;30;20055;-77
2022/05/05 01:12:17;;;;;;;8.70;5.32;;;;;;;6.18;100.00;102053.59;4796146;29;20389;-78
2022/05/05 01:14:46;;;;;;;11.05;6.63;;;;;;;6.20;100.00;102051.03;4793107;29;20353;-79
2022/05/05 01:17:15;;;;;;;11.82;6.13;;;;;;;6.21;100.00;102051.09;4777935;29;20066;-78
2022/05/05 01:19:44;;;;;;;11.13;5.40;;;;;;;6.21;100.00;102053.72;4768831;29;20381;-79
2022/05/05 01:22:15;;;;;;;8.75;5.43;;;;;;;6.21;100.00;102064.19;4750961;30;20524;-78
2022/05/05 01:30:18;;;;;;;9.43;5.65;;;;;;;6.20;100.00;102065.03;4809575;29;20054;-77
2022/05/05 01:32:46;;;;;;;12.07;5.95;;;;;;;6.20;100.00;102065.03;4763091;29;20890;-77
2022/05/05 01:35:15;;;;;;;12.07;5.60;;;;;;;6.19;100.00;102057.09;4808685;29;20058;-77
2022/05/05 01:37:47;;;;;;;9.32;5.53;;;;;;;6.17;100.00;102056.16;4790878;29;20043;-77
2022/05/05 01:40:15;;;;;;;9.07;5.10;;;;;;;6.18;100.00;102061.47;4800503;29;20382;-77
2022/05/05 01:42:44;;;;;;;8.32;6.10;;;;;;;6.20;100.00;102069.34;4812143;29;20449;-77
2022/05/05 01:45:12;;;;;;;9.45;5.72;;;;;;;6.21;100.00;102063.28;4801892;29;20043;-77
2022/05/05 01:47:41;;;;;;;11.68;5.85;;;;;;;6.23;100.00;102072.09;4781790;29;20054;-77
2022/05/05 01:50:09;;;;;;;9.38;5.93;;;;;;;6.23;100.00;102072.09;4794129;29;20047;-77
2022/05/05 01:52:44;;;;;;;12.38;6.47;;;;;;;6.23;100.00;102078.22;4810189;29;20077;-77
2022/05/05 01:55:12;;;;;;;8.05;6.53;;;;;;;6.22;100.00;102073.84;4790552;29;20042;-78
2022/05/05 01:57:41;;;;;;;7.25;6.18;;;;;;;6.20;100.00;102085.97;4784236;29;20054;-77
2022/05/05 02:00:10;;;;;;;18.00;7.75;;;;;;;6.18;100.00;102074.53;4809435;29;20046;-77
2022/05/05 02:02:43;;;;;;;17.02;6.70;;;;;;;6.17;100.00;102077.97;4792393;29;20063;-77
2022/05/05 02:05:13;;;;;;;7.28;5.90;;;;;;;6.16;100.00;102089.28;4764799;30;20051;-77
2022/05/05 02:07:42;;;;;;;9.25;6.75;;;;;;;6.15;100.00;102082.25;4788681;29;20059;-80
2022/05/05 02:10:16;;;;;;;18.10;6.85;;;;;;;6.14;100.00;102083.06;4808072;29;20051;-77
2022/05/05 02:12:46;;;;;;;8.98;6.32;;;;;;;6.13;100.00;102081.31;4776561;29;20260;-77
2022/05/05 02:15:14;;;;;;;12.57;6.90;;;;;;;6.12;100.00;102084.75;4798322;29;20050;-79
2022/05/05 02:17:46;;;;;;;8.77;6.75;;;;;;;6.09;100.00;102089.88;4774796;29;21252;-77
2022/05/05 02:20:14;;;;;;;13.38;7.28;;;;;;;6.07;100.00;102091.53;4796738;29;20066;-77
2022/05/05 02:22:43;;;;;;;13.95;6.85;;;;;;;6.06;100.00;102094.97;4791429;29;20043;-77
2022/05/05 02:25:11;;;;;;;13.82;7.47;;;;;;;6.05;100.00;102093.19;4798829;29;20044;-77
2022/05/05 02:27:47;;;;;;;13.98;7.43;;;;;;;6.04;100.00;102096.63;4778563;29;20051;-78
2022/05/05 02:30:21;;;;;;;16.75;7.35;;;;;;;6.01;100.00;102094.78;4787292;29;20047;-77
2022/05/05 02:32:50;;;;;;;13.10;6.50;;;;;;;5.99;100.00;102092.91;4774005;29;20078;-77
2022/05/05 02:35:19;;;;;;;10.48;6.35;;;;;;;5.97;100.00;102100.72;4808677;29;20528;-79
2022/05/05 02:40:35;;;;;;;10.32;7.05;;;;;;;5.94;100.00;102102.28;4786654;29;20066;-79
2022/05/05 02:43:06;;;;;;;9.88;6.18;;;;;;;5.93;100.00;102092.63;4797898;29;20062;-78
2022/05/05 02:45:35;;;;;;;11.73;6.22;;;;;;;5.95;100.00;102096.19;4800099;29;20062;-78
2022/05/05 02:48:08;;;;;;;9.55;6.47;;;;;;;5.95;100.00;102086.66;4805857;29;20051;-78
2022/05/05 02:50:36;;;;;;;10.25;6.38;;;;;;;5.95;100.00;102096.19;4737492;29;20055;-78
2022/05/05 02:55:56;;;;;;;11.00;7.53;;;;;;;5.97;100.00;102098.09;4805849;29;20589;-78
2022/05/05 02:58:27;;;;;;;13.95;7.63;;;;;;;5.97;100.00;102082.41;4787720;29;20508;-78
2022/05/05 03:00:55;;;;;;;11.73;6.57;;;;;;;5.99;100.00;102082.44;4799140;29;20043;-78
2022/05/05 03:03:24;;;;;;;11.50;7.03;;;;;;;6.00;100.00;102082.50;4812888;29;20052;-78
2022/05/05 03:05:52;;;;;;;11.27;7.20;;;;;;;6.01;100.00;102092.16;4785306;29;20060;-78
2022/05/05 03:08:21;;;;;;;10.35;7.25;;;;;;;6.03;100.00;102085.28;4789010;29;20412;-78
2022/05/05 03:10:49;;;;;;;10.43;6.00;;;;;;;6.06;100.00;102087.13;4812484;29;20272;-78
2022/05/05 03:13:19;;;;;;;10.07;6.53;;;;;;;6.09;100.00;102082.00;4818297;29;20059;-79
2022/05/05 03:15:48;;;;;;;14.13;7.70;;;;;;;6.13;100.00;102077.81;4758783;30;20370;-79
2022/05/05 03:18:16;;;;;;;18.55;8.00;;;;;;;6.14;100.00;102067.38;4790215;29;20067;-78
2022/05/05 03:20:48;;;;;;;9.70;6.70;;;;;;;6.17;100.00;102079.72;4780462;29;20047;-78
2022/05/05 03:23:17;;;;;;;15.93;7.70;;;;;;;6.18;100.00;102076.25;4808859;29;20051;-78
2022/05/05 03:25:45;;;;;;;17.55;7.47;;;;;;;6.21;100.00;102079.88;4808196;29;20250;-78
2022/05/05 03:28:14;;;;;;;14.60;8.10;;;;;;;6.23;100.00;102082.56;4799513;29;20056;-78
2022/05/05 03:30:43;;;;;;;13.02;8.07;;;;;;;6.26;100.00;102082.72;4793106;29;20044;-78
2022/05/05 03:33:11;;;;;;;14.00;8.05;;;;;;;6.29;100.00;102079.31;4798464;29;20059;-78
2022/05/05 03:35:40;;;;;;;11.82;6.63;;;;;;;6.31;100.00;102088.13;4798721;29;20043;-78
2022/05/05 03:38:08;;;;;;;13.45;7.28;;;;;;;6.31;100.00;102081.16;4804926;29;20047;-77
2022/05/05 03:40:36;;;;;;;11.02;7.15;;;;;;;6.32;100.00;102090.81;4807663;29;20416;-78
2022/05/05 03:43:05;;;;;;;17.10;8.10;;;;;;;6.34;100.00;102093.50;4799069;29;20054;-77
2022/05/05 03:45:33;;;;;;;11.02;7.70;;;;;;;6.34;100.00;102097.00;4771565;29;20061;-78
2022/05/05 03:48:02;;;;;;;10.93;6.47;;;;;;;6.35;100.00;102100.50;4803572;29;20047;-78
2022/05/05 03:50:30;;;;;;;15.45;7.50;;;;;;;6.36;100.00;102105.78;4792080;29;20105;-78
2022/05/05 03:52:58;;;;;;;12.90;8.00;;;;;;;6.37;100.00;102110.22;4786785;29;20055;-78
2022/05/05 03:55:29;;;;;;;11.68;6.90;;;;;;;6.40;100.00;102107.69;4792827;29;20055;-78
2022/05/05 03:57:57;;;;;;;10.05;7.32;;;;;;;6.41;100.00;102113.84;4802381;29;20066;-78
2022/05/05 04:00:26;;;;;;;11.10;7.93;;;;;;;6.43;100.00;102113.06;4771552;30;20051;-79
2022/05/05 04:05:43;;;;;;;12.93;7.03;;;;;;;6.45;100.00;102118.38;4803845;29;20047;-78
2022/05/05 04:08:11;;;;;;;13.82;7.78;;;;;;;6.48;100.00;102120.22;4762707;29;20047;-78
2022/05/05 04:10:40;;;;;;;15.50;7.60;;;;;;;6.50;100.00;102124.66;4799181;29;20058;-79
2022/05/05 04:13:08;;;;;;;9.43;7.75;;;;;;;6.53;100.00;102127.44;4795335;29;20362;-78
2022/05/05 04:15:37;;;;;;;10.88;7.32;;;;;;;6.55;100.00;102128.38;4771149;30;20063;-78
2022/05/05 04:18:06;;;;;;;14.05;7.88;;;;;;;6.56;100.00;102138.03;4785673;29;20039;-78
2022/05/05 04:20:34;;;;;;;10.00;7.65;;;;;;;6.57;100.00;102129.34;4799397;29;20528;-78
2022/05/05 04:23:03;;;;;;;12.75;8.25;;;;;;;6.58;100.00;102136.38;4763721;29;20472;-78
2022/05/05 04:25:52;;;;;;;11.25;7.32;;;;;;;6.58;100.00;102138.09;4801908;29;20268;-78
2022/05/05 04:28:21;;;;;;;12.45;8.23;;;;;;;6.59;100.00;102137.25;4798353;29;20528;-78
2022/05/05 04:30:50;;;;;;;13.07;9.18;;;;;;;6.60;100.00;102145.19;4802615;29;20054;-79
2022/05/05 04:33:19;;;;;;;15.05;9.50;;;;;;;6.60;100.00;102150.41;4800201;29;20062;-78
2022/05/05 04:35:48;;;;;;;12.38;9.70;;;;;;;6.62;100.00;102153.09;4800525;29;20066;-78
2022/05/05 04:38:17;;;;;;;17.73;9.88;;;;;;;6.64;100.00;102151.44;4772952;29;20051;-79
2022/05/05 04:40:46;;;;;;;16.20;9.43;;;;;;;6.66;100.00;102141.03;4795151;29;20043;-78
2022/05/05 04:43:15;;;;;;;12.00;8.73;;;;;;;6.69;100.00;102154.22;4819824;29;20071;-78
2022/05/05 04:45:43;;;;;;;13.10;8.63;;;;;;;6.72;100.00;102147.38;4796375;29;20535;-78
2022/05/05 04:48:12;;;;;;;12.10;9.35;;;;;;;6.76;100.00;102148.41;4797950;29;20062;-78
2022/05/05 04:50:40;;;;;;;16.42;9.32;;;;;;;6.77;100.00;102153.72;4780878;30;20048;-78
2022/05/05 04:53:09;;;;;;;14.75;8.23;;;;;;;6.80;100.00;102152.94;4792953;29;20504;-78
2022/05/05 04:55:37;;;;;;;15.77;8.82;;;;;;;6.82;100.00;102148.63;4778219;29;20063;-79
2022/05/05 04:58:05;;;;;;;15.55;8.85;;;;;;;6.84;100.00;102160.06;4800229;29;20070;-79
2022/05/05 05:00:35;;;;;;;13.02;9.13;;;;;;;6.85;100.00;102159.25;4810146;29;20050;-78
2022/05/05 05:03:04;;;;;;;16.60;8.90;;;;;;;6.87;100.00;102159.31;4788294;29;20063;-78
2022/05/05 05:05:33;;;;;;;14.35;9.20;;;;;;;6.88;100.00;102167.25;4802694;29;20046;-78
2022/05/05 05:08:01;;;;;;;14.48;8.48;;;;;;;6.91;100.00;102169.97;4779537;29;20187;-79
2022/05/05 05:10:30;;;;;;;11.52;8.30;;;;;;;6.93;100.00;102162.19;4805145;29;20062;-78
2022/05/05 05:12:59;;;;;;;17.10;8.50;;;;;;;6.96;100.00;102159.69;4807505;29;20069;-79
2022/05/05 05:15:28;;;;;;;13.27;8.63;;;;;;;6.98;100.00;102174.63;4811039;29;20047;-78
2022/05/05 05:17:56;;;;;;;12.48;8.88;;;;;;;7.00;100.00;102175.56;4803256;29;20062;-78
2022/05/05 05:20:30;;;;;;;13.27;8.48;;;;;;;7.01;100.00;102177.38;4789472;29;20054;-78
2022/05/05 05:22:59;;;;;;;11.10;8.40;;;;;;;7.04;100.00;102179.22;4775584;29;20059;-78
2022/05/05 05:25:28;;;;;;;16.60;9.32;;;;;;;7.07;100.00;102175.81;4773465;29;20055;-78
2022/05/05 05:27:57;;;;;;;14.23;9.18;;;;;;;7.10;100.00;102175.94;4799314;29;20050;-78
2022/05/05 05:30:39;;;;;;;18.73;8.13;;;;;;;7.13;100.00;102183.94;4801533;29;20047;-78
2022/05/05 05:33:08;;;;;;;16.60;9.00;;;;;;;7.15;100.00;102182.25;4807643;29;20054;-78
2022/05/05 05:35:36;;;;;;;13.13;8.50;;;;;;;7.18;100.00;102188.50;4819825;29;20082;-78
2022/05/05 05:38:05;;;;;;;12.07;8.38;;;;;;;7.22;100.00;102189.50;4820942;29;20046;-78
2022/05/05 05:40:33;;;;;;;12.10;8.50;;;;;;;7.25;100.00;102189.63;4784516;29;20058;-79
2022/05/05 05:43:02;;;;;;;13.68;9.23;;;;;;;7.29;100.00;102188.03;4774886;29;20678;-79
2022/05/05 05:45:31;;;;;;;13.38;8.88;;;;;;;7.32;100.00;102189.03;4803488;29;20047;-78
2022/05/05 05:47:59;;;;;;;11.88;9.13;;;;;;;7.37;100.00;102184.88;4772562;29;20261;-77
2022/05/05 05:50:30;;;;;;;16.45;8.27;;;;;;;7.41;100.00;102193.75;4774253;30;20062;-79
2022/05/05 05:52:59;;;;;;;13.38;9.27;;;;;;;7.48;100.00;102197.47;4801421;29;20047;-78
2022/05/05 05:55:28;;;;;;;13.40;7.78;;;;;;;7.54;100.00;102195.06;4796276;29;20050;-78
2022/05/05 05:57:58;;;;;;;14.73;8.07;;;;;;;7.57;100.00;102193.47;4781190;29;20070;-78
2022/05/05 06:00:30;;;;;;;12.18;7.97;;;;;;;7.63;100.00;102194.53;4802892;29;20050;-79
2022/05/05 06:05:46;;;;;;;17.52;8.50;;;;;;;7.75;100.00;102198.50;4787327;29;20441;-78
2022/05/05 06:08:17;;;;;;;14.20;8.33;;;;;;;7.82;100.00;102199.59;4804413;29;20055;-78
2022/05/05 06:10:45;;;;;;;10.43;7.90;;;;;;;7.88;100.00;102199.84;4817618;29;20565;-78
2022/05/05 06:13:14;;;;;;;16.50;8.55;;;;;;;7.93;100.00;102192.13;4787017;29;20514;-78
2022/05/05 06:15:43;;;;;;;14.40;9.05;;;;;;;7.98;100.00;102196.69;4790308;29;20506;-78
2022/05/05 06:18:11;;;;;;;12.50;8.85;;;;;;;8.05;100.00;102189.03;4814035;29;20051;-78
2022/05/05 06:20:41;;;;;;;13.23;7.88;;;;;;;8.12;100.00;102196.28;4787553;29;20051;-78
2022/05/05 06:23:09;;;;;;;11.02;7.78;;;;;;;8.17;100.00;102197.34;4803396;29;20051;-78
2022/05/05 06:25:38;;;;;;;12.63;8.60;;;;;;;8.24;100.00;102195.81;4787645;29;20513;-78
2022/05/05 06:28:06;;;;;;;11.13;7.63;;;;;;;8.28;100.00;102192.44;4778021;29;20058;-78
2022/05/05 06:30:35;;;;;;;15.55;8.60;;;;;;;8.35;100.00;102189.19;4820590;29;20051;-78
2022/05/05 06:33:03;;;;;;;13.77;7.70;;;;;;;8.41;100.00;102202.53;4816059;29;20051;-78
2022/05/05 06:35:32;;;;;;;10.55;8.18;;;;;;;8.47;100.00;102208.03;4805127;29;20059;-78
2022/05/05 06:38:00;;;;;;;11.43;7.53;;;;;;;8.54;100.00;102202.16;4820585;29;20711;-78
2022/05/05 06:40:29;;;;;;;14.00;8.20;;;;;;;8.65;100.00;102198.97;4819298;29;20062;-79
2022/05/05 06:42:57;;;;;;;13.20;7.93;;;;;;;8.72;100.00;102201.84;4775357;29;20047;-78
2022/05/05 06:45:26;;;;;;;14.48;7.88;;;;;;;8.82;100.00;102203.03;4790823;29;20047;-78
2022/05/05 06:47:58;;;;;;;12.55;7.07;;;;;;;8.89;100.00;102202.38;4796574;29;20123;-78
2022/05/05 06:50:28;;;;;;;15.77;7.78;;;;;;;8.95;100.00;102210.47;4785305;29;20047;-79
2022/05/05 06:53:00;;;;;;;13.43;6.97;;;;;;;9.04;100.00;102201.97;4772629;30;20062;-78
2022/05/05 06:55:28;;;;;;;13.73;7.60;;;;;;;9.11;100.00;102205.69;4801820;29;20055;-78
2022/05/05 06:57:57;;;;;;;11.15;8.32;;;;;;;9.18;100.00;102210.28;4778995;29;20066;-79
2022/05/05 07:01:51;;;;;;;11.70;7.60;;;;;;;9.23;100.00;102213.97;4807866;29;20400;-78
2022/05/05 07:03:14;;;;;;;10.48;7.85;;;;;;;9.30;100.00;102218.56;4807121;29;20051;-79
2022/05/05 07:05:44;;;;;;;11.32;7.57;;;;;;;9.38;100.00;102217.91;4795127;29;20078;-78
2022/05/05 07:08:12;;;;;;;12.20;7.50;;;;;;;9.45;100.00;102226.03;4787887;29;20046;-78
2022/05/05 07:10:53;;;;;;;11.27;7.20;;;;;;;9.52;100.00;102224.47;4800699;29;20039;-78
2022/05/05 07:13:25;;;;;;;11.75;7.75;;;;;;;9.60;100.00;102222.06;4785903;29;20051;-79
2022/05/05 07:15:56;;;;;;;12.38;7.53;;;;;;;9.68;100.00;102226.69;4784558;30;20074;-79
2022/05/05 07:18:27;;;;;;;11.20;7.40;;;;;;;9.75;100.00;102230.38;4783394;29;20083;-79
2022/05/05 07:20:56;;;;;;;14.93;7.57;;;;;;;9.85;100.00;102226.28;4764698;30;20055;-78
2022/05/05 07:23:24;;;;;;;15.48;7.47;;;;;;;9.93;100.00;102236.19;4785420;29;20070;-79
2022/05/05 07:26:36;;;;;;;14.48;7.70;;;;;;;10.01;100.00;102228.50;4803621;29;20054;-79
2022/05/05 07:29:05;;;;;;;11.63;6.32;;;;;;;10.10;100.00;102231.38;4766916;29;20047;-79
2022/05/05 07:31:34;;;;;;;12.10;7.45;;;;;;;10.15;100.00;102235.03;4751812;30;20187;-79
2022/05/05 07:34:03;;;;;;;9.88;5.78;;;;;;;10.21;100.00;102238.66;4787223;29;20054;-78
2022/05/05 07:36:35;;;;;;;10.43;6.47;;;;;;;10.27;100.00;102238.84;4778470;29;20067;-78
2022/05/05 07:39:06;;;;;;;14.15;6.50;;;;;;;10.35;100.00;102247.88;4782278;29;21256;-78
2022/05/05 07:41:35;;;;;;;13.35;6.40;;;;;;;10.44;100.00;102241.97;4802494;29;20063;-77
2022/05/05 07:44:05;;;;;;;10.93;6.35;;;;;;;10.52;100.00;102237.78;4794256;29;20036;-79
2022/05/05 07:46:35;;;;;;;12.68;7.53;;;;;;;10.62;100.00;102246.81;4737177;30;20058;-77
2022/05/05 07:49:05;;;;;;;11.32;7.00;;;;;;;10.68;100.00;102239.03;4759903;29;20058;-77
2022/05/05 07:51:34;;;;;;;10.35;6.45;;;;;;;10.74;100.00;102241.84;4774804;29;20062;-77
2022/05/05 07:56:56;;;;;;;8.25;5.63;;;;;;;10.83;100.00;102244.72;4764757;29;20663;-78
2022/05/05 07:59:25;;;;;;;9.93;6.40;;;;;;;10.89;100.00;102242.22;4784837;29;20039;-77
2022/05/05 08:01:53;;;;;;;9.52;5.70;;;;;;;10.96;100.00;102252.91;4755768;29;20047;-78
2022/05/05 08:04:22;;;;;;;14.63;6.88;;;;;;;11.00;100.00;102249.50;4772942;29;20059;-77
2022/05/05 08:06:51;;;;;;;11.70;6.30;;;;;;;11.05;100.00;102254.03;4775454;29;20335;-77
2022/05/05 08:09:20;;;;;;;9.85;6.95;;;;;;;11.11;100.00;102259.47;4774643;29;20051;-77
2022/05/05 08:12:09;;;;;;;10.98;6.63;;;;;;;11.16;100.00;102261.31;4784782;29;20055;-77
2022/05/05 08:14:37;;;;;;;10.27;6.07;;;;;;;11.21;100.00;102254.38;4788383;29;20050;-77
2022/05/05 08:17:06;;;;;;;11.68;6.57;;;;;;;11.26;100.00;102261.53;4787173;29;20050;-77
2022/05/05 08:19:41;;;;;;;15.07;6.10;;;;;;;11.35;100.00;102260.88;4782088;29;20054;-79
2022/05/05 08:22:10;;;;;;;11.40;6.07;;;;;;;11.44;100.00;102265.47;4786060;29;20055;-78
2022/05/05 08:30:13;;;;;;;8.18;6.25;;;;;;;11.74;99.31;102264.34;4783308;29;20087;-76
2022/05/05 08:32:41;;;;;;;13.50;6.95;;;;;;;11.80;98.91;102268.00;4774247;29;20519;-77
2022/05/05 08:35:10;;;;;;;11.43;5.97;;;;;;;11.85;97.00;102269.00;4763572;29;20058;-77
2022/05/05 08:37:39;;;;;;;10.43;6.18;;;;;;;11.93;97.06;102268.28;4791197;29;20066;-78
2022/05/05 08:40:14;;;;;;;10.63;5.90;;;;;;;12.01;96.50;102267.59;4768697;29;20634;-77
2022/05/05 08:42:42;;;;;;;13.27;6.15;;;;;;;12.08;94.22;102269.50;4793420;29;20044;-77
2022/05/05 08:45:14;;;;;;;10.27;5.97;;;;;;;12.12;93.18;102272.19;4786992;29;20054;-77
2022/05/05 08:47:45;;;;;;;9.25;5.75;;;;;;;12.13;92.21;102274.84;4776847;29;20513;-77
2022/05/05 08:50:15;;;;;;;10.95;6.53;;;;;;;12.20;92.96;102273.25;4765949;29;20067;-77
2022/05/05 08:52:49;;;;;;;10.75;5.78;;;;;;;12.27;90.89;102272.50;4788068;29;20043;-78
2022/05/05 08:55:21;;;;;;;9.10;5.70;;;;;;;12.33;91.57;102279.66;4790606;29;20417;-77
2022/05/05 08:57:49;;;;;;;12.68;5.75;;;;;;;12.43;91.08;102271.91;4784697;29;20740;-77
2022/05/05 09:00:19;;;;;;;12.35;6.00;;;;;;;12.54;91.39;102271.22;4799665;29;20078;-77
2022/05/05 09:02:54;;;;;;;12.95;6.43;;;;;;;12.62;89.95;102277.53;4769402;29;20184;-77
2022/05/05 09:05:44;;;;;;;8.80;5.35;;;;;;;12.71;88.10;102274.16;4760500;29;20035;-77
2022/05/05 09:08:22;;;;;;;10.63;5.88;;;;;;;12.82;89.69;102284.06;4797188;29;20417;-77
2022/05/05 09:10:54;;;;;;;10.07;5.78;;;;;;;12.94;88.30;102285.13;4778297;29;20082;-77
2022/05/05 09:13:31;;;;;;;13.95;6.65;;;;;;;13.02;87.84;102291.41;4776975;29;20051;-77
2022/05/05 09:16:03;;;;;;;11.73;6.03;;;;;;;13.10;87.16;102292.44;4801776;29;20054;-77
2022/05/05 09:18:33;;;;;;;12.05;5.82;;;;;;;13.16;86.33;102289.91;4790981;29;20405;-77
2022/05/05 09:21:04;;;;;;;10.25;6.43;;;;;;;13.25;86.52;102297.97;4771627;29;20086;-77
2022/05/05 09:23:37;;;;;;;11.23;5.93;;;;;;;13.33;85.40;102294.59;4784532;29;20047;-78
2022/05/05 09:26:11;;;;;;;8.68;5.68;;;;;;;13.42;85.82;102294.69;4796954;29;20035;-78
2022/05/05 09:28:39;;;;;;;11.85;5.07;;;;;;;13.50;85.07;102302.78;4815937;29;20042;-77
2022/05/05 09:31:09;;;;;;;10.75;5.50;;;;;;;13.55;83.06;102301.06;4784124;29;20097;-78
2022/05/05 09:33:40;;;;;;;9.00;5.38;;;;;;;13.61;83.46;102303.78;4812953;29;20077;-78
2022/05/05 09:36:13;;;;;;;15.00;5.35;;;;;;;13.70;82.51;102290.69;4793479;29;20071;-78
2022/05/05 09:39:03;;;;;;;9.57;5.32;;;;;;;13.81;83.09;102296.13;4782980;30;20055;-78
2022/05/05 09:41:33;;;;;;;10.02;5.32;;;;;;;13.91;83.06;102295.34;4792884;29;20154;-78
2022/05/05 09:44:24;;;;;;;9.35;5.40;;;;;;;14.01;81.03;102297.28;4808195;29;20059;-77
2022/05/05 09:46:52;;;;;;;8.25;4.90;;;;;;;14.09;82.32;102299.13;4793035;29;20051;-78
2022/05/05 09:49:21;;;;;;;13.02;5.97;;;;;;;14.15;79.55;102300.06;4808913;29;20728;-77
2022/05/05 09:57:41;;;;;;;7.93;5.95;;;;;;;14.49;81.38;102295.13;4790982;29;20058;-79
2022/05/05 10:05:53;;;;;;;14.82;5.90;;;;;;;14.98;78.81;102295.63;4799819;29;20061;-80
2022/05/05 10:08:43;;;;;;;7.47;5.65;;;;;;;15.11;78.25;102293.94;4779913;29;20059;-79
2022/05/05 10:11:16;;;;;;;6.85;5.82;;;;;;;15.28;79.30;102299.38;4795531;29;20058;-79
2022/05/05 10:13:46;;;;;;;6.68;5.18;;;;;;;15.46;77.42;102303.91;4795161;29;20404;-79
2022/05/05 10:16:17;;;;;;;9.95;5.70;;;;;;;15.59;77.82;102300.47;4779497;29;20065;-79
2022/05/05 10:18:46;;;;;;;8.93;5.65;;;;;;;15.69;76.96;102305.81;4807360;29;20063;-79
2022/05/05 10:21:26;;;;;;;10.43;6.32;;;;;;;15.76;75.29;102299.69;4811919;29;20094;-80
2022/05/05 10:24:22;;;;;;;12.80;6.30;;;;;;;15.72;70.82;102304.06;4794097;29;20046;-79
2022/05/05 10:26:55;;;;;;;7.30;5.25;;;;;;;15.70;73.91;102313.78;4803837;29;20054;-78
2022/05/05 10:29:41;;;;;;;9.90;6.25;;;;;;;15.71;73.47;102306.72;4811995;29;20051;-78
2022/05/05 10:32:16;;;;;;;9.98;6.35;;;;;;;15.80;75.81;102306.78;4777765;29;20190;-78
2022/05/05 10:35:02;;;;;;;9.52;6.70;;;;;;;15.88;74.73;102302.41;4781539;29;20050;-77
2022/05/05 10:37:33;;;;;;;11.50;6.07;;;;;;;15.98;74.74;102304.22;4813037;29;20721;-78
2022/05/05 10:40:04;;;;;;;24.60;7.10;;;;;;;16.12;75.03;102300.72;4801894;29;20398;-78
2022/05/05 10:42:41;;;;;;;9.15;6.45;;;;;;;16.20;73.36;102312.28;4793359;29;20073;-78
2022/05/05 10:45:29;;;;;;;8.48;5.32;;;;;;;16.25;72.85;102302.53;4807008;29;20056;-79
2022/05/05 10:53:42;;;;;;;9.65;6.35;;;;;;;16.33;70.47;102306.13;4821000;29;20325;-82
2022/05/05 10:56:19;;;;;;;9.75;6.20;;;;;;;16.37;70.05;102315.00;4808694;29;20062;-81
2022/05/05 10:59:08;;;;;;;9.18;6.15;;;;;;;16.41;69.92;102315.84;4817169;29;20054;-81
2022/05/05 11:01:42;;;;;;;8.55;5.85;;;;;;;16.46;70.26;102324.75;4819582;29;20075;-81
2022/05/05 11:04:24;;;;;;;9.18;5.70;;;;;;;16.56;71.82;102314.13;4802031;29;20059;-81
2022/05/05 11:07:27;;;;;;;14.10;6.82;;;;;;;16.52;70.07;102320.34;4796865;29;20055;-81
2022/05/05 11:09:58;;;;;;;12.38;6.93;;;;;;;16.58;71.27;102314.16;4773244;29;20949;-81
2022/05/05 11:12:32;;;;;;;10.52;7.30;;;;;;;16.62;71.23;102321.25;4786349;29;20078;-81
2022/05/05 11:23:49;;;;;;;12.65;7.55;;;;;;;16.79;70.73;102318.59;4803664;29;20047;-83
2022/05/05 11:26:21;;;;;;;12.73;7.32;;;;;;;16.83;70.37;102322.19;4758143;29;22199;-82
2022/05/05 11:28:50;;;;;;;13.10;7.77;;;;;;;16.84;69.65;102323.94;4808083;29;20055;-83
2022/05/05 11:31:30;;;;;;;9.82;6.78;;;;;;;16.85;70.29;102326.63;4792587;29;20297;-83
2022/05/05 11:34:04;;;;;;;13.23;7.47;;;;;;;16.91;70.86;102321.28;4793333;29;20086;-84
2022/05/05 11:36:41;;;;;;;10.82;7.10;;;;;;;16.97;69.32;102319.53;4811421;29;20046;-83
2022/05/05 11:39:10;;;;;;;12.80;7.03;;;;;;;17.02;69.32;102323.97;4785411;29;20478;-83
2022/05/05 11:41:38;;;;;;;11.23;8.20;;;;;;;17.05;69.13;102323.97;4784500;29;20061;-83
2022/05/05 11:44:14;;;;;;;9.40;7.10;;;;;;;17.07;68.52;102327.53;4817031;29;20066;-84
2022/05/05 11:46:44;;;;;;;13.40;7.65;;;;;;;17.19;68.92;102317.75;4813876;29;20428;-82
2022/05/05 11:49:13;;;;;;;13.43;8.02;;;;;;;17.25;69.22;102323.94;4827622;29;20054;-82
2022/05/05 11:51:42;;;;;;;12.35;7.60;;;;;;;17.41;69.49;102321.25;4828488;29;20057;-82
2022/05/05 11:54:15;;;;;;;12.82;7.88;;;;;;;17.57;68.78;102315.00;4832907;29;20049;-82
2022/05/05 11:56:47;;;;;;;13.98;7.30;;;;;;;17.76;67.62;102312.28;4818835;29;20554;-81
2022/05/05 12:02:11;;;;;;;12.30;7.35;;;;;;;17.91;65.06;102306.94;4801424;29;20495;-76
2022/05/05 12:04:42;;;;;;;17.02;8.10;;;;;;;17.87;66.59;102307.84;4817528;29;20066;-77
2022/05/05 12:07:31;;;;;;;13.63;8.18;;;;;;;17.97;66.16;102311.34;4809315;29;20517;-76
2022/05/05 12:10:08;;;;;;;10.13;6.88;;;;;;;18.09;65.97;102311.28;4792500;29;20057;-76
2022/05/05 12:12:37;;;;;;;12.80;7.65;;;;;;;18.23;66.38;102311.22;4798739;29;20836;-76
2022/05/05 12:15:06;;;;;;;14.68;8.63;;;;;;;18.35;65.55;102312.94;4771021;29;20054;-78
2022/05/05 12:17:39;;;;;;;14.23;7.70;;;;;;;18.41;64.65;102310.22;4800970;29;20054;-75
2022/05/05 12:20:13;;;;;;;18.40;8.02;;;;;;;18.48;64.77;102307.50;4807206;29;20065;-76
2022/05/05 12:22:44;;;;;;;37.35;11.50;;;;;;;18.51;64.90;102304.81;4796929;29;20520;-77
2022/05/05 12:25:15;;;;;;;18.00;8.00;;;;;;;18.61;64.65;102305.66;4822658;29;20290;-76
2022/05/05 12:28:03;;;;;;;10.48;7.10;;;;;;;18.74;63.99;102310.91;4814676;29;20058;-75
2022/05/05 12:30:42;;;;;;;14.93;8.48;;;;;;;18.71;63.68;102306.47;4801631;29;20560;-76
2022/05/05 12:33:20;;;;;;;10.35;7.32;;;;;;;18.62;63.62;102310.09;4784959;29;20050;-76
2022/05/05 12:35:49;;;;;;;15.57;7.65;;;;;;;18.46;62.84;102325.31;4800815;29;20054;-75